Time;durP1;ratioP1;P1;durP2;ratioP2;P2;SDS_P1;SDS_P2;PMS_P1;PMS_P2;Temp;Humidity;BMP_temperature;BMP_pressure;BME280_temperature;BME280_humidity;BME280_pressure;Samples;Min_cycle;Max_cycle;Signal;HPM_P1;HPM_P2
2022/09/11 00:00:58;;;;;;;6.05;5.43;;;;;;;;;;5073069;28;20032;-65
2022/09/11 00:03:24;;;;;;;5.75;5.15;;;;;;;;;;5071838;28;20016;-62
2022/09/11 00:05:50;;;;;;;7.32;5.78;;;;;;;;;;5073035;28;20028;-64
2022/09/11 00:08:18;;;;;;;6.00;5.40;;;;;;;;;;5073006;28;20028;-62
2022/09/11 00:10:44;;;;;;;6.88;6.28;;;;;;;;;;5055420;28;20544;-62
2022/09/11 00:13:10;;;;;;;7.18;6.18;;;;;;;;;;5073322;28;20020;-62
2022/09/11 00:15:37;;;;;;;10.18;6.35;;;;;;;;;;5073045;28;20020;-63
2022/09/11 00:18:02;;;;;;;6.47;5.82;;;;;;;;;;5055113;28;20016;-63
2022/09/11 00:20:28;;;;;;;8.75;5.80;;;;;;;;;;5054986;28;20025;-63
2022/09/11 00:22:53;;;;;;;7.00;5.70;;;;;;;;;;5073170;28;20456;-63
2022/09/11 00:25:19;;;;;;;10.95;6.05;;;;;;;;;;5073485;28;20434;-62
2022/09/11 00:27:44;;;;;;;7.78;5.78;;;;;;;;;;5072774;28;20100;-63
2022/09/11 00:30:10;;;;;;;8.27;5.63;;;;;;;;;;5054851;28;20380;-62
2022/09/11 00:32:35;;;;;;;7.70;6.22;;;;;;;;;;5072892;28;20009;-63
2022/09/11 00:35:01;;;;;;;7.70;5.90;;;;;;;;;;5074034;28;20029;-62
2022/09/11 00:37:26;;;;;;;7.63;6.20;;;;;;;;;;5075040;28;20021;-62
2022/09/11 00:39:53;;;;;;;9.25;5.80;;;;;;;;;;5076299;28;20036;-63
2022/09/11 00:42:19;;;;;;;9.90;5.60;;;;;;;;;;5076258;28;20491;-62
2022/09/11 00:44:44;;;;;;;9.00;5.50;;;;;;;;;;5058228;28;20039;-62
2022/09/11 00:47:14;;;;;;;6.97;6.27;;;;;;;;;;5074800;28;20035;-64
2022/09/11 00:49:42;;;;;;;6.20;5.43;;;;;;;;;;5058063;28;20313;-63
2022/09/11 00:52:07;;;;;;;7.95;5.80;;;;;;;;;;5076223;28;20099;-62
2022/09/11 00:54:36;;;;;;;10.13;6.30;;;;;;;;;;5074897;28;20556;-63
2022/09/11 00:57:05;;;;;;;10.73;6.55;;;;;;;;;;5058569;28;20017;-62
2022/09/11 00:59:31;;;;;;;7.38;6.47;;;;;;;;;;5075783;28;20534;-62
2022/09/11 01:01:57;;;;;;;7.75;6.70;;;;;;;;;;5075958;28;20103;-62
2022/09/11 01:04:22;;;;;;;7.68;6.57;;;;;;;;;;5076454;28;20060;-62
2022/09/11 01:06:53;;;;;;;8.77;7.13;;;;;;;;;;5058493;28;20021;-62
2022/09/11 01:09:19;;;;;;;11.45;8.55;;;;;;;;;;5058410;28;20044;-63
2022/09/11 01:12:00;;;;;;;12.25;9.43;;;;;;;;;;5057819;28;20459;-62
2022/09/11 01:14:44;;;;;;;12.40;8.10;;;;;;;;;;5076121;28;20441;-62
2022/09/11 01:17:19;;;;;;;10.05;7.85;;;;;;;;;;5075789;28;20082;-62
2022/09/11 01:20:06;;;;;;;12.88;7.53;;;;;;;;;;5057839;28;20460;-63
2022/09/11 01:22:37;;;;;;;9.27;7.03;;;;;;;;;;5076048;28;20036;-62
2022/09/11 01:25:21;;;;;;;10.93;6.95;;;;;;;;;;5075542;28;20116;-62
2022/09/11 01:27:49;;;;;;;10.98;7.35;;;;;;;;;;5074011;28;20075;-63
2022/09/11 01:30:14;;;;;;;9.75;7.00;;;;;;;;;;5058172;28;20419;-62
2022/09/11 01:32:46;;;;;;;9.68;7.53;;;;;;;;;;5075902;28;20120;-62
2022/09/11 01:35:26;;;;;;;11.48;7.88;;;;;;;;;;5057254;28;20485;-63
2022/09/11 01:38:21;;;;;;;8.98;7.05;;;;;;;;;;5057611;28;20424;-62
2022/09/11 01:40:50;;;;;;;10.32;7.35;;;;;;;;;;5003544;28;20066;-62
2022/09/11 01:43:20;;;;;;;11.07;7.63;;;;;;;;;;5073819;28;20046;-68
2022/09/11 01:45:48;;;;;;;11.98;8.35;;;;;;;;;;5056535;28;20036;-66
2022/09/11 01:48:15;;;;;;;10.38;7.93;;;;;;;;;;5075013;28;20056;-66
2022/09/11 01:50:41;;;;;;;12.35;7.72;;;;;;;;;;5057003;28;20025;-67
2022/09/11 01:53:08;;;;;;;12.85;7.45;;;;;;;;;;5056921;28;20522;-67
2022/09/11 01:55:34;;;;;;;11.20;7.97;;;;;;;;;;5073532;28;20029;-66
2022/09/11 01:58:05;;;;;;;9.75;7.53;;;;;;;;;;5056850;28;20051;-67
2022/09/11 02:00:34;;;;;;;12.70;8.18;;;;;;;;;;5056963;28;20024;-67
2022/09/11 02:03:21;;;;;;;12.45;8.85;;;;;;;;;;5073667;28;20111;-67
2022/09/11 02:05:58;;;;;;;11.45;8.27;;;;;;;;;;5074600;28;20058;-67
2022/09/11 02:08:24;;;;;;;10.15;8.23;;;;;;;;;;5074645;28;20051;-67
2022/09/11 02:10:54;;;;;;;12.32;8.13;;;;;;;;;;5056836;28;20035;-67
2022/09/11 02:13:29;;;;;;;9.80;7.85;;;;;;;;;;5056478;28;20048;-67
2022/09/11 02:15:57;;;;;;;12.63;8.90;;;;;;;;;;5056508;28;20028;-67
2022/09/11 02:18:25;;;;;;;12.77;7.70;;;;;;;;;;5057042;28;20103;-67
2022/09/11 02:20:52;;;;;;;11.38;8.40;;;;;;;;;;5073484;28;20036;-67
2022/09/11 02:23:18;;;;;;;14.05;7.95;;;;;;;;;;5056372;28;20021;-67
2022/09/11 02:25:43;;;;;;;10.15;8.07;;;;;;;;;;5072847;28;20129;-67
2022/09/11 02:28:09;;;;;;;9.98;8.13;;;;;;;;;;5074470;28;20476;-67
2022/09/11 02:30:37;;;;;;;11.02;8.20;;;;;;;;;;5056179;28;20091;-68
2022/09/11 02:33:04;;;;;;;10.32;8.20;;;;;;;;;;5056163;28;20015;-68
2022/09/11 02:35:39;;;;;;;6.78;5.32;;;;;;;;;;5056118;28;20020;-68
2022/09/11 02:38:17;;;;;;;15.55;8.35;;;;;;;;;;5056446;28;20024;-68
2022/09/11 02:40:47;;;;;;;10.60;8.02;;;;;;;;;;5056584;28;20025;-63
2022/09/11 02:43:16;;;;;;;8.63;7.25;;;;;;;;;;5056054;28;20078;-63
2022/09/11 02:45:47;;;;;;;10.07;7.80;;;;;;;;;;5072533;28;20059;-63
2022/09/11 02:48:32;;;;;;;9.57;7.82;;;;;;;;;;5055973;28;20024;-63
2022/09/11 02:51:06;;;;;;;9.10;7.35;;;;;;;;;;5073824;28;20031;-63
2022/09/11 02:53:47;;;;;;;7.25;6.53;;;;;;;;;;5055847;28;20029;-63
2022/09/11 02:56:17;;;;;;;8.45;6.88;;;;;;;;;;5071814;28;20468;-63
2022/09/11 02:58:45;;;;;;;7.43;6.68;;;;;;;;;;5055498;28;20052;-63
2022/09/11 03:01:10;;;;;;;7.15;6.38;;;;;;;;;;5072795;28;20128;-62
2022/09/11 03:03:42;;;;;;;8.25;5.80;;;;;;;;;;5055843;28;20025;-63
2022/09/11 03:06:10;;;;;;;7.45;6.10;;;;;;;;;;5072344;28;20039;-63
2022/09/11 03:08:35;;;;;;;6.68;5.35;;;;;;;;;;5056345;28;20028;-63
2022/09/11 03:11:01;;;;;;;7.20;5.32;;;;;;;;;;5074003;28;20020;-63
2022/09/11 03:13:30;;;;;;;5.90;5.00;;;;;;;;;;5056129;28;20476;-63
2022/09/11 03:15:56;;;;;;;10.65;5.55;;;;;;;;;;5072685;28;20090;-63
2022/09/11 03:18:22;;;;;;;5.63;5.13;;;;;;;;;;5055549;28;20475;-63
2022/09/11 03:20:47;;;;;;;5.07;4.60;;;;;;;;;;5072384;28;20482;-63
2022/09/11 03:23:13;;;;;;;5.53;4.50;;;;;;;;;;5055445;28;20021;-63
2022/09/11 03:25:39;;;;;;;4.97;4.47;;;;;;;;;;5055995;28;20040;-63
2022/09/11 03:28:06;;;;;;;4.65;4.30;;;;;;;;;;5072137;28;20020;-63
2022/09/11 03:30:33;;;;;;;5.18;4.68;;;;;;;;;;5055661;28;20023;-63
2022/09/11 03:32:59;;;;;;;4.68;4.28;;;;;;;;;;5072086;28;20020;-63
2022/09/11 03:35:26;;;;;;;4.32;4.03;;;;;;;;;;5055776;28;20024;-62
2022/09/11 03:37:51;;;;;;;5.22;4.72;;;;;;;;;;5072042;28;20086;-63
2022/09/11 03:40:19;;;;;;;4.80;4.10;;;;;;;;;;5072350;28;20032;-63
2022/09/11 03:42:44;;;;;;;4.78;4.38;;;;;;;;;;5055194;28;20457;-63
2022/09/11 03:45:10;;;;;;;5.18;4.70;;;;;;;;;;5072786;28;20047;-68
2022/09/11 03:47:37;;;;;;;5.78;4.93;;;;;;;;;;5072056;28;20464;-68
2022/09/11 03:50:03;;;;;;;5.13;4.72;;;;;;;;;;5055262;28;20024;-66
2022/09/11 03:52:29;;;;;;;5.13;4.50;;;;;;;;;;5073561;28;20028;-66
2022/09/11 03:54:54;;;;;;;5.03;4.53;;;;;;;;;;5073479;28;20029;-66
2022/09/11 03:57:20;;;;;;;5.15;4.63;;;;;;;;;;5071866;28;20025;-66
2022/09/11 03:59:46;;;;;;;4.60;4.22;;;;;;;;;;5055080;28;20052;-66
2022/09/11 04:02:11;;;;;;;4.18;3.88;;;;;;;;;;5071976;28;20032;-68
2022/09/11 04:04:38;;;;;;;4.88;4.32;;;;;;;;;;5055688;28;20033;-68
2022/09/11 04:07:04;;;;;;;3.97;3.67;;;;;;;;;;5055189;28;20026;-68
2022/09/11 04:09:30;;;;;;;5.93;4.10;;;;;;;;;;5058846;28;20381;-68
2022/09/11 04:11:56;;;;;;;3.97;3.70;;;;;;;;;;5074989;28;20020;-69
2022/09/11 04:14:24;;;;;;;3.60;3.30;;;;;;;;;;5059407;28;20047;-68
2022/09/11 04:16:52;;;;;;;3.47;3.28;;;;;;;;;;5076147;28;20035;-68
2022/09/11 04:19:20;;;;;;;3.22;3.00;;;;;;;;;;5075687;28;20111;-68
2022/09/11 04:21:46;;;;;;;3.65;3.33;;;;;;;;;;5075620;28;20027;-68
2022/09/11 04:24:11;;;;;;;3.97;3.67;;;;;;;;;;5075353;28;20028;-68
2022/09/11 04:26:37;;;;;;;4.00;3.70;;;;;;;;;;5075864;28;20040;-67
2022/09/11 04:29:09;;;;;;;8.43;3.67;;;;;;;;;;5058287;28;20369;-68
2022/09/11 04:31:35;;;;;;;4.30;3.80;;;;;;;;;;5058542;28;20028;-68
2022/09/11 04:34:00;;;;;;;4.00;3.53;;;;;;;;;;5075190;28;20021;-68
2022/09/11 04:36:30;;;;;;;4.55;3.28;;;;;;;;;;5058706;28;20035;-68
2022/09/11 04:38:56;;;;;;;4.28;3.85;;;;;;;;;;5075081;28;20036;-68
2022/09/11 04:41:23;;;;;;;3.65;3.45;;;;;;;;;;5058617;28;20131;-68
2022/09/11 04:43:52;;;;;;;3.75;3.50;;;;;;;;;;5075925;28;20099;-69
2022/09/11 04:46:18;;;;;;;4.07;3.38;;;;;;;;;;5058202;28;20042;-68
2022/09/11 04:48:48;;;;;;;4.50;3.50;;;;;;;;;;5058163;28;20021;-68
2022/09/11 04:51:19;;;;;;;3.70;3.45;;;;;;;;;;5074848;28;20104;-68
2022/09/11 04:53:45;;;;;;;4.38;4.03;;;;;;;;;;5074734;28;20396;-68
2022/09/11 04:56:13;;;;;;;7.82;3.72;;;;;;;;;;5075968;28;20021;-69
2022/09/11 04:58:43;;;;;;;4.10;3.60;;;;;;;;;;5075759;28;20052;-68
2022/09/11 05:01:12;;;;;;;3.97;3.67;;;;;;;;;;5057910;28;20033;-68
2022/09/11 05:03:38;;;;;;;4.60;4.10;;;;;;;;;;5057857;28;20095;-67
2022/09/11 05:06:07;;;;;;;5.70;4.47;;;;;;;;;;5074753;28;20037;-68
2022/09/11 05:08:33;;;;;;;5.53;4.47;;;;;;;;;;5074452;28;20016;-68
2022/09/11 05:11:01;;;;;;;4.88;4.47;;;;;;;;;;5057448;28;20032;-67
2022/09/11 05:13:26;;;;;;;4.88;4.30;;;;;;;;;;5075189;28;20016;-67
2022/09/11 05:15:58;;;;;;;4.13;3.75;;;;;;;;;;5056069;28;20028;-67
2022/09/11 05:18:24;;;;;;;4.55;3.72;;;;;;;;;;5055538;28;20044;-67
2022/09/11 05:20:57;;;;;;;4.68;4.05;;;;;;;;;;5073027;28;20020;-67
2022/09/11 05:23:24;;;;;;;4.15;3.75;;;;;;;;;;5057141;28;20086;-67
2022/09/11 05:25:49;;;;;;;4.30;4.00;;;;;;;;;;5040319;28;20580;-67
2022/09/11 05:28:16;;;;;;;6.20;4.25;;;;;;;;;;5057206;28;20104;-67
2022/09/11 05:30:42;;;;;;;4.40;3.55;;;;;;;;;;5074063;28;20495;-67
2022/09/11 05:33:07;;;;;;;4.20;3.85;;;;;;;;;;5057441;28;20025;-67
2022/09/11 05:35:33;;;;;;;5.93;4.60;;;;;;;;;;5075255;28;20473;-67
2022/09/11 05:37:58;;;;;;;4.65;4.25;;;;;;;;;;5057284;28;20388;-67
2022/09/11 05:40:24;;;;;;;4.80;4.22;;;;;;;;;;5057170;28;20419;-62
2022/09/11 05:42:51;;;;;;;4.20;3.80;;;;;;;;;;5057218;28;20025;-62
2022/09/11 05:45:17;;;;;;;4.40;4.00;;;;;;;;;;5057188;28;20472;-62
2022/09/11 05:47:44;;;;;;;3.92;3.58;;;;;;;;;;5057032;28;20071;-62
2022/09/11 05:50:09;;;;;;;4.00;3.60;;;;;;;;;;5074973;28;20036;-62
2022/09/11 05:52:35;;;;;;;3.80;3.53;;;;;;;;;;5056307;28;20495;-62
2022/09/11 05:55:01;;;;;;;5.28;4.55;;;;;;;;;;5055846;28;20029;-62
2022/09/11 05:57:29;;;;;;;4.63;4.20;;;;;;;;;;5055671;28;20029;-62
2022/09/11 05:59:54;;;;;;;4.72;4.32;;;;;;;;;;5072391;28;20032;-62
2022/09/11 06:02:20;;;;;;;6.10;3.85;;;;;;;;;;5073600;28;20043;-62
2022/09/11 06:04:50;;;;;;;4.47;4.07;;;;;;;;;;5055625;28;20661;-63
2022/09/11 06:07:18;;;;;;;4.43;3.95;;;;;;;;;;5072233;28;20028;-63
2022/09/11 06:09:45;;;;;;;5.00;4.47;;;;;;;;;;5073843;28;20016;-63
2022/09/11 06:12:11;;;;;;;3.85;3.55;;;;;;;;;;5057530;28;20043;-63
2022/09/11 06:14:37;;;;;;;4.03;3.65;;;;;;;;;;5055560;28;20019;-63
2022/09/11 06:17:05;;;;;;;4.78;4.07;;;;;;;;;;5055474;28;20039;-62
2022/09/11 06:19:31;;;;;;;4.57;4.25;;;;;;;;;;5055513;28;20609;-63
2022/09/11 06:21:57;;;;;;;4.70;4.32;;;;;;;;;;5055357;28;20024;-63
2022/09/11 06:24:27;;;;;;;3.92;3.72;;;;;;;;;;5055299;28;20020;-63
2022/09/11 06:26:54;;;;;;;3.60;3.40;;;;;;;;;;5071832;28;20028;-63
2022/09/11 06:29:20;;;;;;;4.72;3.80;;;;;;;;;;5055226;28;20349;-63
2022/09/11 06:31:50;;;;;;;4.63;3.63;;;;;;;;;;5055142;28;20354;-63
2022/09/11 06:34:18;;;;;;;3.30;3.00;;;;;;;;;;5071839;28;20097;-68
2022/09/11 06:36:44;;;;;;;3.75;3.55;;;;;;;;;;5071970;28;20017;-68
2022/09/11 06:39:10;;;;;;;3.90;3.65;;;;;;;;;;5055035;28;20031;-68
2022/09/11 06:41:36;;;;;;;3.75;3.55;;;;;;;;;;5054977;28;20076;-68
2022/09/11 06:44:08;;;;;;;3.63;3.33;;;;;;;;;;5054955;28;20036;-68
2022/09/11 06:46:35;;;;;;;3.47;3.28;;;;;;;;;;5054894;28;20028;-68
2022/09/11 06:49:01;;;;;;;3.15;2.95;;;;;;;;;;5063351;28;20086;-68
2022/09/11 06:51:27;;;;;;;3.50;3.20;;;;;;;;;;5069727;28;20499;-69
2022/09/11 06:53:56;;;;;;;3.50;3.20;;;;;;;;;;5046351;28;20020;-68
2022/09/11 06:56:24;;;;;;;2.88;2.70;;;;;;;;;;5067301;28;20033;-68
2022/09/11 06:58:50;;;;;;;2.58;2.42;;;;;;;;;;5067086;28;20045;-68
2022/09/11 07:01:17;;;;;;;2.88;2.65;;;;;;;;;;5050464;28;20032;-68
2022/09/11 07:03:45;;;;;;;3.67;2.75;;;;;;;;;;5034328;28;20025;-68
2022/09/11 07:06:11;;;;;;;3.03;2.83;;;;;;;;;;5050309;28;20028;-68
2022/09/11 07:08:39;;;;;;;2.75;2.60;;;;;;;;;;5050808;28;20550;-68
2022/09/11 07:11:07;;;;;;;3.08;2.80;;;;;;;;;;5050468;28;20036;-68
2022/09/11 07:13:33;;;;;;;3.40;3.10;;;;;;;;;;5050074;28;20052;-68
2022/09/11 07:16:00;;;;;;;2.83;2.63;;;;;;;;;;5050569;28;20028;-68
2022/09/11 07:18:31;;;;;;;3.22;3.03;;;;;;;;;;5050609;28;20052;-68
2022/09/11 07:20:58;;;;;;;4.95;3.45;;;;;;;;;;5050728;28;20472;-68
2022/09/11 07:23:24;;;;;;;3.70;3.33;;;;;;;;;;5066861;28;20484;-68
2022/09/11 07:25:49;;;;;;;4.03;3.63;;;;;;;;;;5050401;28;20035;-68
2022/09/11 07:28:15;;;;;;;3.92;3.53;;;;;;;;;;5050353;28;20381;-66
2022/09/11 07:30:40;;;;;;;4.47;4.18;;;;;;;;;;5050647;28;20036;-66
2022/09/11 07:33:05;;;;;;;5.30;4.80;;;;;;;;;;5033477;28;20361;-66
2022/09/11 07:35:34;;;;;;;4.72;4.40;;;;;;;;;;5050496;28;20028;-66
2022/09/11 07:38:00;;;;;;;6.28;4.80;;;;;;;;;;5050641;28;20501;-66
2022/09/11 07:40:26;;;;;;;5.72;5.18;;;;;;;;;;5050299;28;20043;-65
2022/09/11 07:42:52;;;;;;;4.93;4.53;;;;;;;;;;5067540;28;20508;-66
2022/09/11 07:45:18;;;;;;;5.18;4.03;;;;;;;;;;5054580;28;20036;-65
2022/09/11 07:47:44;;;;;;;4.80;4.07;;;;;;;;;;5072460;28;20272;-66
2022/09/11 07:50:10;;;;;;;3.80;3.50;;;;;;;;;;5054272;28;20040;-66
2022/09/11 07:52:35;;;;;;;3.70;3.50;;;;;;;;;;5054004;28;20480;-65
2022/09/11 07:55:03;;;;;;;3.65;3.45;;;;;;;;;;5070896;28;20025;-65
2022/09/11 07:57:31;;;;;;;3.63;3.42;;;;;;;;;;5053915;28;20031;-66
2022/09/11 08:00:00;;;;;;;3.33;3.10;;;;;;;;;;5072506;28;20073;-65
2022/09/11 08:02:33;;;;;;;3.25;3.05;;;;;;;;;;5071745;28;20111;-66
2022/09/11 08:04:59;;;;;;;3.60;3.40;;;;;;;;;;5053919;28;20123;-65
2022/09/11 08:07:25;;;;;;;3.25;3.05;;;;;;;;;;5070308;28;20033;-65
2022/09/11 08:09:51;;;;;;;3.28;3.08;;;;;;;;;;5054373;28;20041;-63
2022/09/11 08:12:18;;;;;;;3.22;2.97;;;;;;;;;;5070370;28;20028;-62
2022/09/11 08:14:44;;;;;;;3.05;2.80;;;;;;;;;;5053756;28;20075;-62
2022/09/11 08:17:15;;;;;;;2.70;2.60;;;;;;;;;;5070393;28;20483;-62
2022/09/11 08:19:41;;;;;;;3.10;2.90;;;;;;;;;;5053639;28;20086;-63
2022/09/11 08:22:07;;;;;;;3.08;2.88;;;;;;;;;;5053408;28;20107;-63
2022/09/11 08:24:38;;;;;;;3.28;2.78;;;;;;;;;;5070145;28;20181;-62
2022/09/11 08:27:05;;;;;;;3.15;2.95;;;;;;;;;;5053446;28;20499;-62
2022/09/11 08:29:32;;;;;;;3.78;3.20;;;;;;;;;;5070205;28;20024;-62
2022/09/11 08:31:59;;;;;;;3.45;3.25;;;;;;;;;;5053260;28;20115;-63
2022/09/11 08:34:25;;;;;;;3.25;3.05;;;;;;;;;;5053383;28;20155;-62
2022/09/11 08:36:51;;;;;;;3.45;3.25;;;;;;;;;;5069934;28;20037;-62
2022/09/11 08:39:17;;;;;;;3.45;3.25;;;;;;;;;;5070165;28;20074;-62
2022/09/11 08:42:00;;;;;;;3.33;3.13;;;;;;;;;;5053568;28;20119;-62
2022/09/11 08:44:28;;;;;;;3.17;2.97;;;;;;;;;;5053095;28;20472;-63
2022/09/11 08:47:14;;;;;;;4.15;2.70;;;;;;;;;;5070031;28;20043;-62
2022/09/11 08:49:45;;;;;;;3.05;2.90;;;;;;;;;;5053142;28;20035;-62
2022/09/11 08:52:13;;;;;;;2.85;2.75;;;;;;;;;;5052986;28;20036;-63
2022/09/11 08:54:39;;;;;;;2.88;2.70;;;;;;;;;;5035119;28;20082;-63
2022/09/11 08:57:15;;;;;;;2.92;2.63;;;;;;;;;;5053162;28;20037;-63
2022/09/11 08:59:49;;;;;;;3.03;2.80;;;;;;;;;;5069689;28;20063;-63
2022/09/11 09:02:33;;;;;;;2.78;2.58;;;;;;;;;;5071260;28;20165;-62
2022/09/11 09:05:31;;;;;;;2.65;2.55;;;;;;;;;;5069905;28;20037;-62
2022/09/11 09:08:00;;;;;;;2.72;2.60;;;;;;;;;;5030913;28;20052;-63
2022/09/11 09:10:28;;;;;;;3.20;2.53;;;;;;;;;;5069792;28;20109;-66
2022/09/11 09:12:58;;;;;;;2.83;2.63;;;;;;;;;;5053056;28;20487;-71
2022/09/11 09:15:23;;;;;;;2.97;2.70;;;;;;;;;;5072360;28;20384;-71
2022/09/11 09:18:01;;;;;;;2.72;2.50;;;;;;;;;;5072196;28;20021;-67
2022/09/11 09:20:30;;;;;;;3.15;2.97;;;;;;;;;;5053849;28;20033;-66
2022/09/11 09:23:05;;;;;;;3.00;2.80;;;;;;;;;;5070171;28;20025;-67
2022/09/11 09:25:34;;;;;;;3.00;2.80;;;;;;;;;;5070020;28;20132;-67
2022/09/11 09:28:17;;;;;;;2.55;2.45;;;;;;;;;;5071883;28;20123;-66
2022/09/11 09:30:48;;;;;;;2.40;1.92;;;;;;;;;;5070717;28;20093;-67
2022/09/11 09:33:14;;;;;;;2.35;2.25;;;;;;;;;;5070239;28;20030;-66
2022/09/11 09:35:42;;;;;;;2.35;2.15;;;;;;;;;;5070584;28;20039;-67
2022/09/11 09:38:13;;;;;;;2.35;2.20;;;;;;;;;;5070534;28;20063;-66
2022/09/11 09:40:41;;;;;;;;;;;;;;;;;;5070958;28;20751;-66
2022/09/11 09:43:11;;;;;;;2.63;2.10;;;;;;;;;;5070259;28;19909;-66
2022/09/11 09:45:50;;;;;;;2.42;2.03;;;;;;;;;;5053150;28;20078;-66
2022/09/11 09:48:16;;;;;;;2.10;2.00;;;;;;;;;;5070098;28;20110;-66
2022/09/11 09:50:43;;;;;;;2.22;2.13;;;;;;;;;;5070338;28;20096;-66
2022/09/11 09:53:11;;;;;;;1.98;1.90;;;;;;;;;;5069779;28;20052;-66
2022/09/11 09:55:39;;;;;;;2.65;2.38;;;;;;;;;;5070151;28;20092;-66
2022/09/11 09:58:06;;;;;;;2.50;2.30;;;;;;;;;;5069885;28;20114;-66
2022/09/11 10:00:34;;;;;;;2.28;2.08;;;;;;;;;;5052243;28;20037;-66
2022/09/11 10:03:15;;;;;;;2.83;2.50;;;;;;;;;;5069937;28;20103;-66
2022/09/11 10:05:42;;;;;;;2.25;2.08;;;;;;;;;;5069373;28;20028;-67
2022/09/11 10:08:28;;;;;;;2.20;2.10;;;;;;;;;;5069880;28;20112;-67
2022/09/11 10:11:00;;;;;;;2.97;2.10;;;;;;;;;;5069204;28;20053;-67
2022/09/11 10:13:36;;;;;;;2.60;2.40;;;;;;;;;;5069674;28;20025;-66
2022/09/11 10:16:03;;;;;;;2.70;2.50;;;;;;;;;;5069577;28;20036;-67
2022/09/11 10:18:32;;;;;;;2.50;2.30;;;;;;;;;;5069576;28;20154;-66
2022/09/11 10:21:12;;;;;;;2.92;2.63;;;;;;;;;;5069762;28;20020;-66
2022/09/11 10:23:57;;;;;;;2.55;2.35;;;;;;;;;;5069164;28;20782;-66
2022/09/11 10:26:33;;;;;;;2.95;2.75;;;;;;;;;;5069301;28;20556;-68
2022/09/11 10:29:06;;;;;;;3.40;3.10;;;;;;;;;;5051138;28;20028;-67
2022/09/11 10:31:32;;;;;;;3.47;3.17;;;;;;;;;;5069296;28;20067;-67
2022/09/11 10:33:58;;;;;;;2.92;2.75;;;;;;;;;;5069199;28;20051;-67
2022/09/11 10:36:28;;;;;;;3.08;2.80;;;;;;;;;;5069582;28;20349;-67
2022/09/11 10:38:54;;;;;;;3.15;2.95;;;;;;;;;;5054485;28;20020;-67
2022/09/11 10:41:24;;;;;;;2.97;2.78;;;;;;;;;;5074129;28;20035;-67
2022/09/11 10:43:50;;;;;;;4.28;2.80;;;;;;;;;;5074061;28;20032;-67
2022/09/11 10:46:18;;;;;;;2.88;2.67;;;;;;;;;;5073884;28;20046;-67
2022/09/11 10:48:54;;;;;;;3.03;2.83;;;;;;;;;;5056397;28;20100;-67
2022/09/11 10:51:21;;;;;;;3.05;2.85;;;;;;;;;;5073502;28;20020;-67
2022/09/11 10:54:04;;;;;;;3.25;3.05;;;;;;;;;;5073877;28;20020;-67
2022/09/11 10:56:31;;;;;;;3.70;2.88;;;;;;;;;;5074081;28;20063;-66
2022/09/11 10:58:59;;;;;;;3.08;2.47;;;;;;;;;;5073491;28;20508;-66
2022/09/11 11:01:25;;;;;;;3.00;2.80;;;;;;;;;;5074045;28;20385;-66
2022/09/11 11:03:51;;;;;;;2.83;2.72;;;;;;;;;;5073947;28;20017;-66
2022/09/11 11:06:18;;;;;;;3.30;3.00;;;;;;;;;;5073317;28;20032;-66
2022/09/11 11:08:59;;;;;;;2.85;2.65;;;;;;;;;;5073082;28;20016;-69
2022/09/11 11:11:24;;;;;;;2.50;2.30;;;;;;;;;;5073621;28;20519;-65
2022/09/11 11:14:03;;;;;;;3.15;2.95;;;;;;;;;;5073534;28;20028;-66
2022/09/11 11:16:34;;;;;;;2.58;2.38;;;;;;;;;;5073864;28;20020;-66
2022/09/11 11:19:19;;;;;;;2.75;2.55;;;;;;;;;;5071756;28;20043;-66
2022/09/11 11:21:44;;;;;;;2.45;2.25;;;;;;;;;;5071419;28;20040;-66
2022/09/11 11:24:16;;;;;;;2.20;2.10;;;;;;;;;;5053417;28;20070;-66
2022/09/11 11:26:57;;;;;;;2.65;2.45;;;;;;;;;;5071321;28;20040;-66
2022/09/11 11:29:25;;;;;;;2.47;2.28;;;;;;;;;;5071382;28;20306;-62
2022/09/11 11:31:54;;;;;;;1.80;1.70;;;;;;;;;;5071358;28;20016;-62
2022/09/11 11:34:26;;;;;;;2.30;2.20;;;;;;;;;;5070006;28;20229;-62
2022/09/11 11:37:00;;;;;;;2.30;2.10;;;;;;;;;;5071847;28;20025;-62
2022/09/11 11:39:28;;;;;;;2.13;2.03;;;;;;;;;;5054618;28;20426;-62
2022/09/11 11:42:09;;;;;;;2.60;2.40;;;;;;;;;;5073360;28;20016;-62
2022/09/11 11:44:47;;;;;;;2.17;2.08;;;;;;;;;;5073594;28;20032;-62
2022/09/11 11:47:13;;;;;;;2.78;2.58;;;;;;;;;;5075009;28;20043;-62
2022/09/11 11:50:01;;;;;;;2.35;2.25;;;;;;;;;;5074691;28;20074;-66
2022/09/11 11:52:30;;;;;;;2.25;2.10;;;;;;;;;;5055633;28;20020;-66
2022/09/11 11:55:03;;;;;;;2.22;2.13;;;;;;;;;;5071972;28;20472;-66
2022/09/11 11:57:33;;;;;;;1.92;1.83;;;;;;;;;;5072974;28;20044;-66
2022/09/11 11:59:58;;;;;;;1.98;1.77;;;;;;;;;;5055341;28;20033;-66
2022/09/11 12:02:29;;;;;;;2.05;1.95;;;;;;;;;;5073437;28;20046;-66
2022/09/11 12:04:57;;;;;;;1.90;1.80;;;;;;;;;;5055230;28;20047;-66
2022/09/11 12:07:28;;;;;;;3.70;2.22;;;;;;;;;;5055053;28;20029;-66
2022/09/11 12:09:54;;;;;;;2.22;2.13;;;;;;;;;;5055187;28;20469;-66
2022/09/11 12:12:25;;;;;;;3.75;2.28;;;;;;;;;;5071805;28;20021;-65
2022/09/11 12:14:54;;;;;;;2.65;2.17;;;;;;;;;;5073625;28;20063;-65
2022/09/11 12:17:24;;;;;;;2.40;2.30;;;;;;;;;;5071753;28;20021;-65
2022/09/11 12:20:08;;;;;;;2.63;2.53;;;;;;;;;;5071791;28;20050;-65
2022/09/11 12:22:37;;;;;;;2.53;2.28;;;;;;;;;;5073228;28;20078;-66
2022/09/11 12:25:02;;;;;;;2.42;2.33;;;;;;;;;;5072931;28;20027;-65
2022/09/11 12:27:48;;;;;;;2.90;2.70;;;;;;;;;;5072852;28;20123;-66
2022/09/11 12:30:16;;;;;;;2.85;2.65;;;;;;;;;;5076053;28;20086;-66
2022/09/11 12:32:59;;;;;;;3.03;2.83;;;;;;;;;;5077047;28;20369;-66
2022/09/11 12:35:24;;;;;;;2.75;2.65;;;;;;;;;;5076433;28;20037;-66
2022/09/11 12:37:53;;;;;;;3.03;2.83;;;;;;;;;;5076407;28;20027;-66
2022/09/11 12:40:31;;;;;;;3.03;2.83;;;;;;;;;;5076932;28;20074;-66
2022/09/11 12:43:15;;;;;;;2.85;2.70;;;;;;;;;;5076296;28;20040;-66
2022/09/11 12:45:42;;;;;;;3.10;2.90;;;;;;;;;;5076860;28;20037;-66
2022/09/11 12:48:13;;;;;;;3.10;2.90;;;;;;;;;;5076139;28;20111;-66
2022/09/11 12:50:39;;;;;;;2.97;2.78;;;;;;;;;;5076315;22;20413;-65
2022/09/11 12:53:07;;;;;;;3.45;2.80;;;;;;;;;;5038623;28;20420;-66
2022/09/11 12:55:38;;;;;;;2.88;2.67;;;;;;;;;;5056095;28;20025;-66
2022/09/11 12:58:05;;;;;;;2.25;2.15;;;;;;;;;;5056035;28;20102;-66
2022/09/11 13:00:35;;;;;;;2.67;2.55;;;;;;;;;;5056247;28;20062;-66
2022/09/11 13:03:02;;;;;;;2.97;2.78;;;;;;;;;;5056260;28;20033;-66
2022/09/11 13:05:34;;;;;;;2.95;2.75;;;;;;;;;;5056179;28;20017;-66
2022/09/11 13:08:03;;;;;;;2.78;2.58;;;;;;;;;;5056019;28;20033;-66
2022/09/11 13:10:33;;;;;;;3.10;2.90;;;;;;;;;;5056064;28;20021;-66
2022/09/11 13:13:22;;;;;;;3.92;3.15;;;;;;;;;;5038113;28;20025;-66
2022/09/11 13:15:51;;;;;;;3.10;2.90;;;;;;;;;;5038514;28;20036;-66
2022/09/11 13:18:24;;;;;;;3.05;2.85;;;;;;;;;;5055919;28;20021;-65
2022/09/11 13:21:18;;;;;;;2.78;2.58;;;;;;;;;;5055486;28;20032;-66
2022/09/11 13:23:45;;;;;;;3.00;2.80;;;;;;;;;;5038507;28;20049;-66
2022/09/11 13:26:22;;;;;;;2.70;2.50;;;;;;;;;;5055729;28;20021;-66
2022/09/11 13:28:49;;;;;;;2.40;2.30;;;;;;;;;;5055748;28;20035;-65
2022/09/11 13:31:18;;;;;;;2.47;2.28;;;;;;;;;;5055412;28;20532;-65
2022/09/11 13:33:49;;;;;;;2.10;2.00;;;;;;;;;;5055920;28;20044;-66
2022/09/11 13:36:17;;;;;;;2.33;2.13;;;;;;;;;;5055810;28;20267;-66
2022/09/11 13:38:43;;;;;;;1.80;1.70;;;;;;;;;;5037493;28;20111;-66
2022/09/11 13:41:13;;;;;;;2.10;1.73;;;;;;;;;;5037302;28;20101;-66
2022/09/11 13:43:47;;;;;;;1.80;1.70;;;;;;;;;;5055489;28;20037;-66
2022/09/11 13:46:13;;;;;;;1.98;1.83;;;;;;;;;;5055345;28;20068;-65
2022/09/11 13:48:38;;;;;;;2.05;1.95;;;;;;;;;;5055394;28;20443;-65
2022/09/11 13:51:05;;;;;;;2.03;1.92;;;;;;;;;;5054839;28;20041;-65
2022/09/11 13:53:31;;;;;;;2.30;2.08;;;;;;;;;;5054983;28;20028;-66
2022/09/11 13:55:57;;;;;;;1.98;1.88;;;;;;;;;;5055743;28;20368;-66
2022/09/11 13:58:23;;;;;;;3.83;2.10;;;;;;;;;;5055204;28;20096;-66
2022/09/11 14:00:49;;;;;;;3.15;1.80;;;;;;;;;;5054846;28;20060;-66
2022/09/11 14:03:15;;;;;;;2.17;2.08;;;;;;;;;;5055365;28;20116;-66
2022/09/11 14:05:46;;;;;;;2.65;2.20;;;;;;;;;;5053506;28;20476;-66
2022/09/11 14:08:24;;;;;;;2.10;2.00;;;;;;;;;;5036709;28;20405;-66
2022/09/11 14:10:51;;;;;;;2.22;1.70;;;;;;;;;;5036836;28;20071;-66
2022/09/11 14:13:19;;;;;;;2.50;1.90;;;;;;;;;;5053276;28;20024;-66
2022/09/11 14:15:50;;;;;;;3.33;2.78;;;;;;;;;;5053421;28;20028;-66
2022/09/11 14:18:36;;;;;;;3.03;2.83;;;;;;;;;;5053407;28;20387;-67
2022/09/11 14:21:04;;;;;;;3.47;3.17;;;;;;;;;;5052982;28;20116;-67
2022/09/11 14:23:30;;;;;;;4.65;3.33;;;;;;;;;;5053130;28;20465;-67
2022/09/11 14:26:15;;;;;;;3.83;3.40;;;;;;;;;;5051538;28;20464;-67
2022/09/11 14:28:47;;;;;;;4.85;3.95;;;;;;;;;;5050729;28;20029;-67
2022/09/11 14:31:26;;;;;;;4.20;3.10;;;;;;;;;;5045241;28;20558;-68
2022/09/11 14:34:01;;;;;;;5.30;4.05;;;;;;;;;;5031617;28;20087;-67
2022/09/11 14:36:26;;;;;;;4.15;3.75;;;;;;;;;;5047576;28;20033;-67
2022/09/11 14:38:53;;;;;;;6.10;5.50;;;;;;;;;;5047758;28;20036;-67
2022/09/11 14:41:19;;;;;;;4.70;4.30;;;;;;;;;;5048647;28;20131;-66
2022/09/11 14:43:46;;;;;;;4.38;3.95;;;;;;;;;;5048296;28;20434;-67
2022/09/11 14:46:12;;;;;;;4.95;4.45;;;;;;;;;;5047337;28;20119;-67
2022/09/11 14:48:37;;;;;;;4.40;4.00;;;;;;;;;;5046236;28;20124;-67
2022/09/11 14:51:05;;;;;;;4.57;4.07;;;;;;;;;;5049350;28;20037;-68
2022/09/11 14:53:33;;;;;;;4.57;3.70;;;;;;;;;;5049902;28;20029;-68
2022/09/11 14:55:58;;;;;;;3.38;3.15;;;;;;;;;;5049935;28;20453;-67